createdAt,value
2018-04-06T00:01:46.366Z,101203.78
2018-04-06T00:04:13.780Z,101201.91
2018-04-06T00:06:41.181Z,101206.43
2018-04-06T00:09:08.598Z,101204.36
2018-04-06T00:11:36.011Z,101211.31
2018-04-06T00:14:03.410Z,101210.77
2018-04-06T00:16:30.833Z,101213.08
2018-04-06T00:18:58.221Z,101205.61
2018-04-06T00:21:25.666Z,101206.70
2018-04-06T00:23:53.053Z,101209.59
2018-04-06T00:26:20.819Z,101209.32
2018-04-06T00:28:48.230Z,101206.84
2018-04-06T00:31:15.642Z,101210.25
2018-04-06T00:33:43.161Z,101209.30
2018-04-06T00:36:10.583Z,101207.39
2018-04-06T00:38:38.030Z,101214.20
2018-04-06T00:41:06.353Z,101208.58
2018-04-06T00:43:33.843Z,101210.91
2018-04-06T00:46:01.381Z,101216.11
2018-04-06T00:48:28.928Z,101204.98
2018-04-06T00:50:56.438Z,101213.81
2018-04-06T00:53:35.751Z,101207.19
2018-04-06T00:56:03.263Z,101201.38
2018-04-06T00:58:30.669Z,101206.03
2018-04-06T01:00:58.091Z,101205.92
2018-04-06T01:03:25.481Z,101204.72
2018-04-06T01:05:52.889Z,101211.03
2018-04-06T01:08:20.320Z,101208.66
2018-04-06T01:10:47.718Z,101209.83
2018-04-06T01:13:15.133Z,101220.10
2018-04-06T01:15:42.546Z,101210.74
2018-04-06T01:18:09.964Z,101213.22
2018-04-06T01:20:37.370Z,101209.44
2018-04-06T01:23:04.786Z,101211.77
2018-04-06T01:25:32.174Z,101211.79
2018-04-06T01:27:59.598Z,101201.87
2018-04-06T01:30:26.994Z,101214.53
2018-04-06T01:32:54.405Z,101208.82
2018-04-06T01:35:21.806Z,101209.52
2018-04-06T01:37:49.220Z,101204.91
2018-04-06T01:40:16.608Z,101203.56
2018-04-06T01:42:44.034Z,101207.92
2018-04-06T01:45:11.429Z,101209.19
2018-04-06T01:47:38.846Z,101211.52
2018-04-06T01:50:06.241Z,101224.02
2018-04-06T01:52:33.658Z,101220.91
2018-04-06T01:55:01.062Z,101223.51
2018-04-06T01:57:28.483Z,101221.06
2018-04-06T01:59:55.890Z,101220.66
2018-04-06T02:02:23.293Z,101226.66
2018-04-06T02:04:50.695Z,101227.34
2018-04-06T02:07:18.103Z,101219.20
2018-04-06T02:09:45.511Z,101221.25
2018-04-06T02:12:12.930Z,101225.06
2018-04-06T02:14:40.333Z,101221.12
2018-04-06T02:17:07.745Z,101217.98
2018-04-06T02:19:35.154Z,101212.70
2018-04-06T02:22:02.557Z,101217.73
2018-04-06T02:24:30.036Z,101219.50
2018-04-06T02:26:57.391Z,101226.30
2018-04-06T02:29:24.790Z,101230.10
2018-04-06T02:31:52.206Z,101219.89
2018-04-06T02:34:19.607Z,101219.48
2018-04-06T02:36:47.018Z,101225.89
2018-04-06T02:39:14.414Z,101224.94
2018-04-06T02:41:41.980Z,101224.37
2018-04-06T02:44:09.404Z,101232.95
2018-04-06T02:46:36.800Z,101230.64
2018-04-06T02:49:04.222Z,101230.52
2018-04-06T02:51:31.677Z,101231.32
2018-04-06T02:53:59.121Z,101222.91
2018-04-06T02:56:26.542Z,101227.39
2018-04-06T02:58:53.955Z,101227.66
2018-04-06T03:01:21.361Z,101228.48
2018-04-06T03:03:49.129Z,101230.27
2018-04-06T03:06:16.537Z,101227.55
2018-04-06T03:08:43.938Z,101226.34
2018-04-06T03:11:11.361Z,101225.52
2018-04-06T03:13:38.805Z,101228.38
2018-04-06T03:16:06.202Z,101227.69
2018-04-06T03:18:33.617Z,101222.79
2018-04-06T03:21:01.019Z,101236.80
2018-04-06T03:23:28.433Z,101229.73
2018-04-06T03:25:55.836Z,101229.73
2018-04-06T03:28:23.249Z,101228.25
2018-04-06T03:30:50.665Z,101228.66
2018-04-06T03:33:18.076Z,101228.78
2018-04-06T03:35:45.482Z,101224.97
2018-04-06T03:38:12.902Z,101231.50
2018-04-06T03:40:40.300Z,101223.75
2018-04-06T03:43:07.722Z,101220.63
2018-04-06T03:45:35.397Z,101229.88
2018-04-06T03:48:02.802Z,101227.58
2018-04-06T03:50:30.197Z,101230.70
2018-04-06T03:52:57.641Z,101229.63
2018-04-06T03:55:25.057Z,101230.18
2018-04-06T03:57:52.454Z,101223.65
2018-04-06T04:00:19.870Z,101212.22
2018-04-06T04:02:47.268Z,101229.52
2018-04-06T04:05:14.679Z,101224.88
2018-04-06T04:07:42.077Z,101223.53
2018-04-06T04:10:09.489Z,101228.97
2018-04-06T04:12:36.898Z,101221.91
2018-04-06T04:15:04.310Z,101227.73
2018-04-06T04:17:31.705Z,101229.66
2018-04-06T04:19:59.121Z,101223.80
2018-04-06T04:22:26.530Z,101219.19
2018-04-06T04:24:53.937Z,101225.70
2018-04-06T04:27:21.346Z,101222.45
2018-04-06T04:29:48.765Z,101229.66
2018-04-06T04:32:16.170Z,101236.30
2018-04-06T04:34:44.180Z,101233.70
2018-04-06T04:37:11.586Z,101238.35
2018-04-06T04:39:38.985Z,101240.78
2018-04-06T04:42:06.400Z,101237.92
2018-04-06T04:44:33.849Z,101231.95
2018-04-06T04:47:01.245Z,101239.27
2018-04-06T04:49:28.649Z,101234.13
2018-04-06T04:51:56.053Z,101236.30
2018-04-06T04:54:23.480Z,101237.09
2018-04-06T04:56:50.880Z,101239.44
2018-04-06T04:59:18.306Z,101238.74
2018-04-06T05:01:45.715Z,101241.17
2018-04-06T05:04:13.119Z,101243.77
2018-04-06T05:06:40.545Z,101242.41
2018-04-06T05:09:07.965Z,101253.69
2018-04-06T05:11:35.382Z,101249.60
2018-04-06T05:14:02.778Z,101253.29
2018-04-06T05:16:30.196Z,101253.55
2018-04-06T05:18:57.607Z,101260.20
2018-04-06T05:21:25.026Z,101257.34
2018-04-06T05:23:52.430Z,101261.68
2018-04-06T05:26:19.843Z,101270.67
2018-04-06T05:28:47.244Z,101275.00
2018-04-06T05:31:14.661Z,101275.50
2018-04-06T05:33:42.065Z,101270.33
2018-04-06T05:36:09.497Z,101271.40
2018-04-06T05:38:36.907Z,101274.84
2018-04-06T05:41:04.326Z,101274.11
2018-04-06T05:43:31.733Z,101274.90
2018-04-06T05:45:59.155Z,101274.75
2018-04-06T05:48:26.566Z,101276.73
2018-04-06T05:50:53.980Z,101272.91
2018-04-06T05:53:21.442Z,101274.37
2018-04-06T05:55:48.902Z,101276.21
2018-04-06T05:58:16.334Z,101268.31
2018-04-06T06:00:43.724Z,101267.93
2018-04-06T06:03:11.126Z,101260.41
2018-04-06T06:05:38.578Z,101251.44
2018-04-06T06:08:05.980Z,101249.89
2018-04-06T06:10:33.394Z,101252.38
2018-04-06T06:13:00.798Z,101249.30
2018-04-06T06:15:28.213Z,101247.22
2018-04-06T06:17:55.618Z,101254.08
2018-04-06T06:20:23.029Z,101259.98
2018-04-06T06:22:50.429Z,101260.08
2018-04-06T06:25:17.843Z,101263.70
2018-04-06T06:27:45.246Z,101267.14
2018-04-06T06:30:12.653Z,101263.46
2018-04-06T06:32:40.098Z,101264.20
2018-04-06T06:35:07.526Z,101269.47
2018-04-06T06:37:34.934Z,101262.50
2018-04-06T06:40:02.366Z,101253.02
2018-04-06T06:42:29.780Z,101252.59
2018-04-06T06:44:57.531Z,101251.83
2018-04-06T06:47:24.938Z,101258.13
2018-04-06T06:49:52.351Z,101256.30
2018-04-06T06:52:20.136Z,101259.45
2018-04-06T06:54:47.543Z,101252.54
2018-04-06T06:57:14.949Z,101250.77
2018-04-06T06:59:42.368Z,101245.80
2018-04-06T07:02:09.790Z,101250.20
2018-04-06T07:04:37.202Z,101250.69
2018-04-06T07:07:04.629Z,101242.86
2018-04-06T07:09:32.041Z,101240.98
2018-04-06T07:11:59.474Z,101235.81
2018-04-06T07:14:26.930Z,101237.95
2018-04-06T07:16:54.350Z,101239.32
2018-04-06T07:19:21.766Z,101243.05
2018-04-06T07:21:49.189Z,101234.66
2018-04-06T07:24:16.612Z,101237.30
2018-04-06T07:26:44.048Z,101230.55
2018-04-06T07:29:11.459Z,101224.78
2018-04-06T07:31:38.872Z,101217.45
2018-04-06T07:34:06.273Z,101219.42
2018-04-06T07:36:33.686Z,101211.69
2018-04-06T07:39:01.110Z,101208.18
2018-04-06T07:41:28.541Z,101205.13
2018-04-06T07:43:55.952Z,101211.91
2018-04-06T07:46:23.364Z,101208.20
2018-04-06T07:48:50.793Z,101210.05
2018-04-06T07:51:18.208Z,101211.92
2018-04-06T07:53:45.622Z,101208.91
2018-04-06T07:56:13.026Z,101207.19
2018-04-06T07:58:40.441Z,101208.80
2018-04-06T08:01:07.850Z,101208.03
2018-04-06T08:03:35.265Z,101198.97
2018-04-06T08:06:02.678Z,101199.71
2018-04-06T08:08:30.087Z,101199.41
2018-04-06T08:10:57.498Z,101195.11
2018-04-06T08:13:24.979Z,101189.45
2018-04-06T08:15:52.333Z,101183.95
2018-04-06T08:18:19.756Z,101184.90
2018-04-06T08:20:47.161Z,101179.78
2018-04-06T08:23:14.690Z,101190.41
2018-04-06T08:25:42.153Z,101178.16
2018-04-06T08:28:09.562Z,101179.08
2018-04-06T08:30:37.006Z,101166.48
2018-04-06T08:33:04.427Z,101172.33
2018-04-06T08:35:31.829Z,101170.80
2018-04-06T08:37:59.258Z,101169.55
2018-04-06T08:40:26.662Z,101177.16
2018-04-06T08:42:54.085Z,101175.66
2018-04-06T08:45:21.489Z,101174.27
2018-04-06T08:47:48.944Z,101179.67
2018-04-06T08:50:16.346Z,101172.89
2018-04-06T08:52:43.769Z,101173.70
2018-04-06T08:55:11.170Z,101170.95
2018-04-06T08:57:38.585Z,101167.40
2018-04-06T09:00:05.998Z,101167.80
2018-04-06T09:02:33.416Z,101160.22
2018-04-06T09:05:00.817Z,101152.75
2018-04-06T09:07:28.285Z,101161.38
2018-04-06T09:09:55.679Z,101167.19
2018-04-06T09:12:23.093Z,101158.47
2018-04-06T09:14:50.505Z,101157.72
2018-04-06T09:17:17.942Z,101163.53
2018-04-06T09:19:45.346Z,101164.75
2018-04-06T09:22:12.772Z,101162.86
2018-04-06T09:24:40.171Z,101164.58
2018-04-06T09:27:07.594Z,101167.86
2018-04-06T09:29:35.002Z,101168.77
2018-04-06T09:32:02.441Z,101168.02
2018-04-06T09:34:29.881Z,101172.78
2018-04-06T09:36:57.413Z,101164.66
2018-04-06T09:39:24.822Z,101169.48
2018-04-06T09:41:52.276Z,101166.51
2018-04-06T09:44:19.742Z,101159.54
2018-04-06T09:46:47.150Z,101159.79
2018-04-06T09:49:14.562Z,101158.94
2018-04-06T09:51:41.998Z,101157.92
2018-04-06T09:54:09.438Z,101144.28
2018-04-06T09:56:36.837Z,101151.09
2018-04-06T09:59:04.250Z,101151.66
2018-04-06T10:01:35.649Z,101145.41
2018-04-06T10:04:03.057Z,101131.06
2018-04-06T10:06:30.561Z,101148.67
2018-04-06T10:08:57.981Z,101132.99
2018-04-06T10:11:25.401Z,101134.69
2018-04-06T10:13:52.805Z,101128.55
2018-04-06T10:16:20.246Z,101131.70
2018-04-06T10:18:47.634Z,101127.76
2018-04-06T10:21:15.051Z,101126.75
2018-04-06T10:23:42.454Z,101114.19
2018-04-06T10:26:09.893Z,101106.30
2018-04-06T10:28:37.307Z,101106.78
2018-04-06T10:31:04.722Z,101106.98
2018-04-06T10:33:32.125Z,101093.02
2018-04-06T10:35:59.541Z,101094.40
2018-04-06T10:38:26.943Z,101088.18
2018-04-06T10:40:54.373Z,101087.48
2018-04-06T10:43:21.777Z,101079.81
2018-04-06T10:45:49.197Z,101081.70
2018-04-06T10:48:16.660Z,101081.98
2018-04-06T10:50:44.067Z,101079.59
2018-04-06T10:53:11.482Z,101079.92
2018-04-06T10:55:38.888Z,101077.72
2018-04-06T10:58:06.305Z,101065.05
2018-04-06T11:00:33.697Z,101060.70
2018-04-06T11:03:01.238Z,101058.81
2018-04-06T11:05:28.659Z,101059.21
2018-04-06T11:07:56.067Z,101055.05
2018-04-06T11:10:23.490Z,101050.69
2018-04-06T11:12:50.917Z,101053.92
2018-04-06T11:15:18.413Z,101052.16
2018-04-06T11:17:45.941Z,101042.69
2018-04-06T11:20:13.409Z,101044.34
2018-04-06T11:22:40.835Z,101048.22
2018-04-06T11:25:08.864Z,101041.33
2018-04-06T11:27:36.314Z,101044.31
2018-04-06T11:30:03.800Z,101040.88
2018-04-06T11:32:31.242Z,101033.17
2018-04-06T11:34:58.676Z,101038.20
2018-04-06T11:37:26.109Z,101040.33
2018-04-06T11:39:53.620Z,101031.95
2018-04-06T11:42:21.067Z,101026.86
2018-04-06T11:44:49.293Z,101026.27
2018-04-06T11:47:16.697Z,101020.45
2018-04-06T11:49:44.132Z,101009.32
2018-04-06T11:52:11.568Z,101002.56
2018-04-06T11:54:39.032Z,101011.20
2018-04-06T11:57:06.548Z,101010.47
2018-04-06T11:59:33.989Z,101004.35
2018-04-06T12:02:01.414Z,100991.05
2018-04-06T12:04:29.958Z,100979.30
2018-04-06T12:06:57.381Z,100990.55
2018-04-06T12:09:24.788Z,100974.38
2018-04-06T12:11:52.199Z,100969.77
2018-04-06T12:14:19.600Z,100974.80
2018-04-06T12:16:47.050Z,100973.38
2018-04-06T12:19:14.529Z,100972.95
2018-04-06T12:21:41.932Z,100965.73
2018-04-06T12:24:09.492Z,100956.55
2018-04-06T12:26:36.950Z,100963.30
2018-04-06T12:29:04.369Z,100956.95
2018-04-06T12:31:31.773Z,100954.70
2018-04-06T12:33:59.210Z,100942.67
2018-04-06T12:36:26.614Z,100941.11
2018-04-06T12:38:54.269Z,100935.05
2018-04-06T12:41:21.691Z,100942.97
2018-04-06T12:43:49.281Z,100935.89
2018-04-06T12:46:16.733Z,100932.86
2018-04-06T12:48:44.651Z,100938.20
2018-04-06T12:51:12.250Z,100929.66
2018-04-06T12:53:39.739Z,100923.56
2018-04-06T12:56:07.158Z,100918.07
2018-04-06T12:58:34.578Z,100920.70
2018-04-06T13:01:01.983Z,100918.16
2018-04-06T13:03:29.489Z,100917.81
2018-04-06T13:05:56.927Z,100912.66
2018-04-06T13:08:24.322Z,100906.62
2018-04-06T13:10:51.726Z,100895.63
2018-04-06T13:13:19.142Z,100900.75
2018-04-06T13:15:46.560Z,100894.22
2018-04-06T13:18:13.956Z,100881.76
2018-04-06T13:20:41.376Z,100879.24
2018-04-06T13:23:08.770Z,100881.61
2018-04-06T13:25:36.196Z,100871.50
2018-04-06T13:28:03.590Z,100868.56
2018-04-06T13:30:31.110Z,100857.06
2018-04-06T13:32:58.505Z,100856.06
2018-04-06T13:35:25.917Z,100860.16
2018-04-06T13:37:53.350Z,100855.30
2018-04-06T13:40:20.750Z,100852.73
2018-04-06T13:42:48.175Z,100846.70
2018-04-06T13:45:15.573Z,100851.98
2018-04-06T13:47:43.002Z,100862.61
2018-04-06T13:50:10.447Z,100853.53
2018-04-06T13:52:37.942Z,100857.22
2018-04-06T13:55:05.422Z,100844.73
2018-04-06T13:57:32.938Z,100843.53
2018-04-06T14:00:00.349Z,100833.84
2018-04-06T14:02:27.767Z,100824.31
2018-04-06T14:04:55.462Z,100838.23
2018-04-06T14:07:23.000Z,100831.33
2018-04-06T14:09:50.399Z,100834.88
2018-04-06T14:12:17.793Z,100825.44
2018-04-06T14:14:45.224Z,100811.73
2018-04-06T14:17:12.638Z,100810.81
2018-04-06T14:19:40.050Z,100802.70
2018-04-06T14:22:07.482Z,100816.03
2018-04-06T14:24:34.965Z,100812.03
2018-04-06T14:27:02.370Z,100801.21
2018-04-06T14:29:29.790Z,100794.39
2018-04-06T14:31:57.206Z,100795.41
2018-04-06T14:34:24.769Z,100780.36
2018-04-06T14:36:52.161Z,100776.23
2018-04-06T14:39:19.586Z,100769.36
2018-04-06T14:41:46.999Z,100782.07
2018-04-06T14:44:14.472Z,100777.81
2018-04-06T14:46:41.905Z,100764.30
2018-04-06T14:49:09.613Z,100767.11
2018-04-06T14:51:37.086Z,100759.81
2018-04-06T14:54:04.485Z,100755.70
2018-04-06T14:56:31.908Z,100746.70
2018-04-06T14:58:59.329Z,100740.47
2018-04-06T15:01:26.750Z,100739.31
2018-04-06T15:03:54.156Z,100719.98
2018-04-06T15:06:21.606Z,100721.67
2018-04-06T15:08:50.040Z,100714.84
2018-04-06T15:11:17.585Z,100713.27
2018-04-06T15:13:45.022Z,100702.45
2018-04-06T15:16:12.453Z,100689.49
2018-04-06T15:18:39.892Z,100686.19
2018-04-06T15:21:07.869Z,100686.98
2018-04-06T15:23:35.383Z,100694.24
2018-04-06T15:26:02.901Z,100695.34
2018-04-06T15:28:30.379Z,100698.05
2018-04-06T15:30:57.815Z,100683.98
2018-04-06T15:33:25.212Z,100684.62
2018-04-06T15:35:52.621Z,100691.14
2018-04-06T15:38:20.038Z,100686.25
2018-04-06T15:40:47.582Z,100680.78
2018-04-06T15:43:15.001Z,100677.77
2018-04-06T15:45:42.408Z,100683.81
2018-04-06T15:48:09.834Z,100679.44
2018-04-06T15:50:37.287Z,100678.08
2018-04-06T15:53:04.715Z,100669.72
2018-04-06T15:55:32.120Z,100669.39
2018-04-06T15:57:59.561Z,100665.06
2018-04-06T16:00:26.957Z,100671.01
2018-04-06T16:02:54.375Z,100660.28
2018-04-06T16:05:21.773Z,100660.64
2018-04-06T16:07:49.196Z,100643.03
2018-04-06T16:10:16.620Z,100654.22
2018-04-06T16:12:44.031Z,100643.21
2018-04-06T16:15:11.438Z,100651.50
2018-04-06T16:17:38.852Z,100645.99
2018-04-06T16:20:06.257Z,100634.86
2018-04-06T16:22:33.677Z,100635.05
2018-04-06T16:25:01.084Z,100639.88
2018-04-06T16:27:28.508Z,100645.53
2018-04-06T16:29:55.901Z,100640.20
2018-04-06T16:32:23.305Z,100642.42
2018-04-06T16:34:50.806Z,100635.30
2018-04-06T16:37:18.215Z,100632.25
2018-04-06T16:39:45.626Z,100633.50
2018-04-06T16:42:13.066Z,100638.95
2018-04-06T16:44:40.445Z,100633.92
2018-04-06T16:47:07.848Z,100636.06
2018-04-06T16:49:35.261Z,100627.84
2018-04-06T16:52:02.669Z,100632.88
2018-04-06T16:54:30.085Z,100631.39
2018-04-06T16:56:57.581Z,100636.93
2018-04-06T16:59:25.001Z,100635.79
2018-04-06T17:04:42.650Z,100634.45
2018-04-06T17:07:10.060Z,100629.84
2018-04-06T17:09:37.477Z,100632.50
2018-04-06T17:12:04.885Z,100627.39
2018-04-06T17:14:32.305Z,100637.80
2018-04-06T17:16:59.709Z,100631.91
2018-04-06T17:19:27.135Z,100636.39
2018-04-06T17:21:54.564Z,100634.98
2018-04-06T17:24:21.981Z,100633.47
2018-04-06T17:26:49.385Z,100629.81
2018-04-06T17:29:16.940Z,100632.42
2018-04-06T17:31:44.334Z,100624.95
2018-04-06T17:34:11.857Z,100632.92
2018-04-06T17:36:39.266Z,100635.77
2018-04-06T17:39:06.662Z,100640.64
2018-04-06T17:41:34.078Z,100634.14
2018-04-06T17:44:01.561Z,100641.94
2018-04-06T17:46:28.974Z,100625.94
2018-04-06T17:48:56.377Z,100640.77
2018-04-06T17:51:23.793Z,100633.11
2018-04-06T17:53:51.207Z,100643.37
2018-04-06T17:56:18.622Z,100641.75
2018-04-06T17:58:46.033Z,100634.33
2018-04-06T18:01:13.444Z,100638.15
2018-04-06T18:03:40.853Z,100639.94
2018-04-06T18:06:08.278Z,100637.45
2018-04-06T18:08:35.681Z,100635.92
2018-04-06T18:11:03.085Z,100638.02
2018-04-06T18:13:30.512Z,100641.08
2018-04-06T18:15:57.925Z,100631.40
2018-04-06T18:18:25.329Z,100639.63
2018-04-06T18:20:52.755Z,100639.66
2018-04-06T18:23:20.150Z,100646.38
2018-04-06T18:25:47.601Z,100639.38
2018-04-06T18:28:15.029Z,100646.03
2018-04-06T18:30:42.437Z,100640.84
2018-04-06T18:33:09.853Z,100651.77
2018-04-06T18:35:37.258Z,100648.86
2018-04-06T18:38:04.686Z,100648.73
2018-04-06T18:40:32.087Z,100651.87
2018-04-06T18:42:59.513Z,100654.95
2018-04-06T18:45:26.913Z,100651.66
2018-04-06T18:47:54.330Z,100651.81
2018-04-06T18:50:21.754Z,100653.19
2018-04-06T18:52:49.197Z,100653.34
2018-04-06T18:55:16.593Z,100648.16
2018-04-06T18:57:44.025Z,100657.81
2018-04-06T19:00:11.425Z,100643.36
2018-04-06T19:02:38.845Z,100659.94
2018-04-06T19:05:06.250Z,100656.47
2018-04-06T19:07:33.910Z,100655.87
2018-04-06T19:10:01.325Z,100659.30
2018-04-06T19:12:28.741Z,100654.66
2018-04-06T19:14:56.150Z,100654.66
2018-04-06T19:17:23.575Z,100654.42
2018-04-06T19:19:50.977Z,100651.11
2018-04-06T19:22:18.496Z,100650.16
2018-04-06T19:24:45.901Z,100643.39
2018-04-06T19:27:13.354Z,100639.11
2018-04-06T19:29:40.984Z,100638.20
2018-04-06T19:32:08.437Z,100641.83
2018-04-06T19:34:35.927Z,100634.95
2018-04-06T19:37:03.506Z,100639.45
2018-04-06T19:39:30.908Z,100632.92
2018-04-06T19:41:58.318Z,100633.98
2018-04-06T19:44:25.720Z,100628.53
2018-04-06T19:46:53.142Z,100624.64
2018-04-06T19:49:20.548Z,100624.70
2018-04-06T19:51:47.972Z,100624.99
2018-04-06T19:54:15.402Z,100620.45
2018-04-06T19:56:42.879Z,100615.28
2018-04-06T19:59:10.283Z,100613.80
2018-04-06T20:01:37.844Z,100611.77
2018-04-06T20:04:05.247Z,100609.74
2018-04-06T20:06:32.794Z,100612.58
2018-04-06T20:09:00.257Z,100613.16
2018-04-06T20:11:27.612Z,100602.45
2018-04-06T20:13:55.033Z,100588.92
2018-04-06T20:16:22.447Z,100601.91
2018-04-06T20:18:49.946Z,100592.67
2018-04-06T20:21:17.348Z,100587.00
2018-04-06T20:23:44.810Z,100580.52
2018-04-06T20:26:12.306Z,100577.41
2018-04-06T20:28:39.750Z,100576.03
2018-04-06T20:31:07.173Z,100581.09
2018-04-06T20:33:34.590Z,100570.88
2018-04-06T20:36:02.007Z,100571.12
2018-04-06T20:38:29.431Z,100564.64
2018-04-06T20:40:56.875Z,100559.83
2018-04-06T20:43:24.332Z,100558.20
2018-04-06T20:45:51.741Z,100557.23
2018-04-06T20:48:19.197Z,100546.34
2018-04-06T20:50:46.603Z,100552.95
2018-04-06T20:53:14.022Z,100546.55
2018-04-06T20:55:41.444Z,100540.30
2018-04-06T20:58:08.865Z,100549.67
2018-04-06T21:00:36.301Z,100542.22
2018-04-06T21:03:03.706Z,100544.86
2018-04-06T21:05:31.109Z,100540.16
2018-04-06T21:07:58.528Z,100534.89
2018-04-06T21:10:25.934Z,100533.15
2018-04-06T21:12:53.364Z,100530.23
2018-04-06T21:15:20.784Z,100527.36
2018-04-06T21:17:48.195Z,100521.45
2018-04-06T21:20:15.593Z,100513.34
2018-04-06T21:22:43.437Z,100513.98
2018-04-06T21:25:10.877Z,100511.12
2018-04-06T21:27:38.294Z,100500.91
2018-04-06T21:30:05.719Z,100493.28
2018-04-06T21:32:33.138Z,100486.80
2018-04-06T21:35:00.548Z,100490.86
2018-04-06T21:37:28.241Z,100490.58
2018-04-06T21:39:55.673Z,100486.05
2018-04-06T21:42:23.085Z,100484.78
2018-04-06T21:44:50.558Z,100484.38
2018-04-06T21:47:18.066Z,100477.91
2018-04-06T21:49:45.608Z,100480.89
2018-04-06T21:52:13.307Z,100482.89
2018-04-06T21:54:40.823Z,100478.26
2018-04-06T21:57:08.278Z,100486.12
2018-04-06T21:59:35.748Z,100482.23
2018-04-06T22:02:03.170Z,100470.57
2018-04-06T22:04:30.613Z,100467.13
2018-04-06T22:06:58.019Z,100458.34
2018-04-06T22:09:27.121Z,100458.71
2018-04-06T22:11:54.542Z,100451.14
2018-04-06T22:14:21.978Z,100443.36
2018-04-06T22:16:49.384Z,100439.56
2018-04-06T22:19:17.064Z,100443.36
2018-04-06T22:21:44.501Z,100434.91
2018-04-06T22:24:11.986Z,100438.58
2018-04-06T22:26:39.445Z,100442.09
2018-04-06T22:29:06.908Z,100437.05
2018-04-06T22:31:34.379Z,100440.64
2018-04-06T22:34:01.931Z,100438.25
2018-04-06T22:36:29.364Z,100435.70
2018-04-06T22:38:56.790Z,100428.82
2018-04-06T22:41:24.195Z,100435.14
2018-04-06T22:43:51.610Z,100435.54
2018-04-06T22:46:19.009Z,100440.11
2018-04-06T22:48:46.430Z,100441.48
2018-04-06T22:51:13.848Z,100435.08
2018-04-06T22:53:41.265Z,100430.30
2018-04-06T22:56:08.673Z,100433.81
2018-04-06T22:58:36.190Z,100429.73
2018-04-06T23:01:03.704Z,100437.02
2018-04-06T23:03:31.097Z,100434.54
2018-04-06T23:05:58.581Z,100434.50
2018-04-06T23:08:26.765Z,100434.42
2018-04-06T23:10:54.214Z,100426.13
2018-04-06T23:13:21.617Z,100419.23
2018-04-06T23:15:49.045Z,100423.13
2018-04-06T23:18:16.447Z,100422.22
2018-04-06T23:20:44.786Z,100424.16
2018-04-06T23:23:12.672Z,100421.44
2018-04-06T23:25:40.886Z,100423.63
2018-04-06T23:28:08.289Z,100421.69
2018-04-06T23:30:35.790Z,100422.61
2018-04-06T23:33:03.188Z,100426.33
2018-04-06T23:35:30.665Z,100420.75
2018-04-06T23:37:58.117Z,100424.42
2018-04-06T23:40:25.516Z,100428.98
2018-04-06T23:42:52.933Z,100424.08
2018-04-06T23:45:20.342Z,100422.40
2018-04-06T23:47:47.741Z,100411.38
2018-04-06T23:50:15.182Z,100404.14
2018-04-06T23:52:42.750Z,100411.31
2018-04-06T23:55:10.155Z,100409.22
2018-04-06T23:57:37.587Z,100407.95
